createdAt,value
2018-11-26T00:01:30.158Z,94.90
2018-11-26T00:03:58.481Z,95.00
2018-11-26T00:06:26.707Z,95.40
2018-11-26T00:08:54.928Z,95.50
2018-11-26T00:11:30.448Z,95.30
2018-11-26T00:13:58.674Z,95.20
2018-11-26T00:16:26.896Z,95.40
2018-11-26T00:18:55.128Z,95.30
2018-11-26T00:21:23.347Z,95.50
2018-11-26T00:23:51.565Z,95.50
2018-11-26T00:26:19.815Z,95.30
2018-11-26T00:28:48.028Z,95.40
2018-11-26T00:31:16.264Z,95.50
2018-11-26T00:33:44.599Z,95.90
2018-11-26T00:36:12.824Z,95.80
2018-11-26T00:38:41.046Z,95.70
2018-11-26T00:41:09.351Z,95.60
2018-11-26T00:43:37.575Z,95.60
2018-11-26T00:46:06.086Z,95.70
2018-11-26T00:48:34.319Z,95.50
2018-11-26T00:51:02.545Z,95.50
2018-11-26T00:53:30.760Z,95.50
2018-11-26T00:55:59.020Z,95.70
2018-11-26T00:58:27.320Z,95.60
2018-11-26T01:00:55.545Z,95.50
2018-11-26T01:03:23.787Z,95.40
2018-11-26T01:05:51.995Z,95.40
2018-11-26T01:08:20.220Z,95.40
2018-11-26T01:10:48.481Z,95.60
2018-11-26T01:13:16.703Z,95.70
2018-11-26T01:15:44.935Z,95.50
2018-11-26T01:18:13.239Z,95.60
2018-11-26T01:20:41.458Z,95.60
2018-11-26T01:23:09.668Z,95.60
2018-11-26T01:25:37.987Z,95.80
2018-11-26T01:28:06.674Z,95.80
2018-11-26T01:30:35.457Z,95.60
2018-11-26T01:33:03.739Z,95.80
2018-11-26T01:35:32.021Z,95.80
2018-11-26T01:38:00.268Z,95.60
2018-11-26T01:40:34.072Z,95.60
2018-11-26T01:43:02.284Z,95.70
2018-11-26T01:45:30.507Z,95.80
2018-11-26T01:47:58.774Z,95.80
2018-11-26T01:50:26.992Z,96.30
2018-11-26T01:52:55.208Z,96.20
2018-11-26T01:55:23.497Z,96.20
2018-11-26T01:57:51.698Z,96.10
2018-11-26T02:00:25.389Z,95.90
2018-11-26T02:02:53.787Z,96.40
2018-11-26T02:05:22.104Z,96.50
2018-11-26T02:07:50.545Z,96.40
2018-11-26T02:10:19.790Z,96.40
2018-11-26T02:12:48.013Z,96.40
2018-11-26T02:15:49.192Z,96.20
2018-11-26T02:18:17.420Z,96.40
2018-11-26T02:20:45.643Z,96.60
2018-11-26T02:23:13.884Z,96.50
2018-11-26T02:25:42.092Z,96.50
2018-11-26T02:28:10.296Z,96.70
2018-11-26T02:30:38.533Z,96.40
2018-11-26T02:33:06.771Z,96.20
2018-11-26T02:35:35.008Z,96.40
2018-11-26T02:38:03.535Z,96.40
2018-11-26T02:40:32.649Z,96.80
2018-11-26T02:43:00.872Z,96.70
2018-11-26T02:45:29.425Z,96.60
2018-11-26T02:47:57.650Z,96.90
2018-11-26T02:50:25.881Z,97.00
2018-11-26T02:52:54.245Z,96.90
2018-11-26T02:58:21.843Z,96.30
2018-11-26T03:00:50.073Z,96.20
2018-11-26T03:03:18.306Z,96.40
2018-11-26T03:05:46.536Z,96.40
2018-11-26T03:08:14.748Z,96.80
2018-11-26T03:10:42.968Z,96.70
2018-11-26T03:13:11.864Z,96.80
2018-11-26T03:15:40.123Z,96.70
2018-11-26T03:18:08.335Z,96.90
2018-11-26T03:20:36.569Z,96.70
2018-11-26T03:23:04.902Z,97.00
2018-11-26T03:25:33.204Z,96.40
2018-11-26T03:28:01.508Z,96.60
2018-11-26T03:30:29.717Z,96.50
2018-11-26T03:32:58.069Z,96.70
2018-11-26T03:35:26.317Z,96.70
2018-11-26T03:37:54.529Z,96.70
2018-11-26T03:40:22.751Z,96.60
2018-11-26T03:42:51.009Z,96.80
2018-11-26T03:47:54.012Z,96.60
2018-11-26T03:50:22.219Z,96.90
2018-11-26T03:52:50.437Z,96.70
2018-11-26T03:55:18.668Z,96.80
2018-11-26T03:57:46.884Z,96.40
2018-11-26T04:00:16.381Z,96.40
2018-11-26T04:02:44.687Z,96.90
2018-11-26T04:05:13.056Z,96.80
2018-11-26T04:07:41.317Z,96.70
2018-11-26T04:10:11.628Z,96.60
2018-11-26T04:12:39.885Z,96.70
2018-11-26T04:15:12.488Z,97.30
2018-11-26T04:17:40.715Z,96.90
2018-11-26T04:20:09.221Z,96.90
2018-11-26T04:22:37.569Z,97.00
2018-11-26T04:25:07.052Z,96.80
2018-11-26T04:27:35.423Z,96.80
2018-11-26T04:30:04.008Z,96.80
2018-11-26T04:32:32.208Z,96.90
2018-11-26T04:35:00.411Z,96.90
2018-11-26T04:37:28.668Z,96.70
2018-11-26T04:39:56.883Z,96.70
2018-11-26T04:42:25.092Z,96.70
2018-11-26T04:44:53.417Z,97.00
2018-11-26T04:47:21.640Z,96.80
2018-11-26T04:49:49.887Z,97.20
2018-11-26T04:52:18.147Z,96.90
2018-11-26T04:54:46.353Z,96.90
2018-11-26T04:57:14.603Z,96.80
2018-11-26T04:59:42.921Z,96.80
2018-11-26T05:02:11.135Z,97.00
2018-11-26T05:04:39.350Z,96.90
2018-11-26T05:07:07.688Z,96.70
2018-11-26T05:09:37.628Z,96.90
2018-11-26T05:12:07.756Z,97.20
2018-11-26T05:14:35.983Z,96.90
2018-11-26T05:17:04.250Z,96.90
2018-11-26T05:19:32.476Z,97.10
2018-11-26T05:22:00.721Z,96.80
2018-11-26T05:24:28.953Z,96.90
2018-11-26T05:26:57.556Z,97.10
2018-11-26T05:29:25.789Z,96.80
2018-11-26T05:31:54.053Z,96.70
2018-11-26T05:34:22.355Z,96.60
2018-11-26T05:36:50.613Z,96.60
2018-11-26T05:39:18.880Z,96.70
2018-11-26T05:41:47.107Z,96.80
2018-11-26T05:44:15.371Z,97.00
2018-11-26T05:46:43.580Z,97.00
2018-11-26T05:49:11.956Z,96.90
2018-11-26T05:51:40.214Z,96.90
2018-11-26T05:54:08.468Z,97.00
2018-11-26T05:56:36.708Z,97.10
2018-11-26T05:59:05.072Z,97.40
2018-11-26T06:01:33.340Z,97.10
2018-11-26T06:04:01.609Z,97.20
2018-11-26T06:06:29.860Z,97.20
2018-11-26T06:08:58.086Z,97.00
2018-11-26T06:11:26.340Z,96.80
2018-11-26T06:13:54.604Z,96.90
2018-11-26T06:16:22.853Z,96.90
2018-11-26T06:18:51.113Z,96.80
2018-11-26T06:21:19.373Z,96.90
2018-11-26T06:23:47.696Z,96.80
2018-11-26T06:26:16.006Z,96.80
2018-11-26T06:28:44.259Z,96.90
2018-11-26T06:31:12.531Z,96.90
2018-11-26T06:33:40.845Z,96.70
2018-11-26T06:36:09.084Z,96.60
2018-11-26T06:38:37.290Z,96.80
2018-11-26T06:41:05.632Z,96.70
2018-11-26T06:43:33.932Z,96.60
2018-11-26T06:46:02.125Z,96.40
2018-11-26T06:48:30.383Z,96.70
2018-11-26T06:50:58.636Z,96.80
2018-11-26T06:53:26.886Z,96.60
2018-11-26T06:55:55.173Z,96.50
2018-11-26T06:58:23.392Z,96.50
2018-11-26T07:00:51.638Z,96.50
2018-11-26T07:03:19.912Z,96.70
2018-11-26T07:05:48.160Z,96.40
2018-11-26T07:08:16.403Z,96.50
2018-11-26T07:10:44.713Z,96.60
2018-11-26T07:13:12.957Z,96.70
2018-11-26T07:15:41.191Z,96.70
2018-11-26T07:18:09.453Z,96.70
2018-11-26T07:20:37.981Z,96.60
2018-11-26T07:23:06.280Z,96.60
2018-11-26T07:25:34.555Z,96.60
2018-11-26T07:28:05.243Z,96.60
2018-11-26T07:30:33.476Z,96.60
2018-11-26T07:33:02.451Z,96.70
2018-11-26T07:35:31.640Z,97.00
2018-11-26T07:37:59.891Z,96.50
2018-11-26T07:40:28.541Z,96.50
2018-11-26T07:43:08.428Z,96.60
2018-11-26T07:45:36.738Z,96.70
2018-11-26T07:48:05.657Z,96.40
2018-11-26T07:50:34.789Z,96.60
2018-11-26T07:53:03.077Z,96.50
2018-11-26T07:55:31.316Z,96.60
2018-11-26T07:57:59.528Z,96.60
2018-11-26T08:00:28.099Z,96.70
2018-11-26T08:02:56.479Z,96.70
2018-11-26T08:05:24.730Z,97.00
2018-11-26T08:07:53.012Z,96.90
2018-11-26T08:10:22.201Z,96.70
2018-11-26T08:12:51.618Z,96.80
2018-11-26T08:15:22.449Z,96.80
2018-11-26T08:17:49.662Z,96.90
2018-11-26T08:20:17.931Z,96.80
2018-11-26T08:22:46.353Z,96.60
2018-11-26T08:25:16.792Z,96.60
2018-11-26T08:27:45.874Z,96.60
2018-11-26T08:30:16.052Z,96.50
2018-11-26T08:32:45.408Z,96.40
2018-11-26T08:35:14.692Z,96.30
2018-11-26T08:37:48.258Z,96.50
2018-11-26T08:40:48.599Z,96.60
2018-11-26T08:43:19.855Z,96.50
2018-11-26T08:45:55.147Z,96.40
2018-11-26T08:48:28.371Z,96.40
2018-11-26T08:51:00.712Z,96.30
2018-11-26T08:53:28.972Z,96.30
2018-11-26T08:56:12.865Z,96.40
2018-11-26T08:58:41.083Z,96.30
2018-11-26T09:01:14.859Z,96.30
2018-11-26T09:03:53.316Z,96.00
2018-11-26T09:06:21.968Z,95.90
2018-11-26T09:08:50.172Z,96.20
2018-11-26T09:11:18.475Z,96.20
2018-11-26T09:13:46.672Z,96.10
2018-11-26T09:16:14.966Z,96.10
2018-11-26T09:18:43.196Z,96.20
2018-11-26T09:21:11.410Z,96.10
2018-11-26T09:23:39.682Z,96.20
2018-11-26T09:26:07.905Z,96.20
2018-11-26T09:28:36.104Z,96.10
2018-11-26T09:31:04.663Z,95.90
2018-11-26T09:33:32.948Z,96.00
2018-11-26T09:36:01.156Z,95.90
2018-11-26T09:38:29.356Z,95.80
2018-11-26T09:40:57.573Z,95.80
2018-11-26T09:43:25.769Z,95.60
2018-11-26T09:45:53.967Z,95.90
2018-11-26T09:48:22.440Z,95.70
2018-11-26T09:50:50.644Z,95.80
2018-11-26T09:53:18.848Z,95.30
2018-11-26T09:55:47.061Z,95.40
2018-11-26T09:58:15.261Z,95.30
2018-11-26T10:00:43.468Z,95.30
2018-11-26T10:03:11.756Z,95.20
2018-11-26T10:05:40.055Z,95.50
2018-11-26T10:08:08.264Z,95.40
2018-11-26T10:10:36.504Z,95.30
2018-11-26T10:13:05.348Z,95.20
2018-11-26T10:15:33.576Z,95.20
2018-11-26T10:18:01.817Z,95.20
2018-11-26T10:20:30.012Z,95.10
2018-11-26T10:22:58.209Z,95.10
2018-11-26T10:25:26.464Z,95.10
2018-11-26T10:27:54.672Z,95.10
2018-11-26T10:30:23.801Z,95.00
2018-11-26T10:32:52.686Z,94.90
2018-11-26T10:35:21.488Z,95.00
2018-11-26T10:37:49.706Z,95.20
2018-11-26T10:40:21.507Z,95.10
2018-11-26T10:42:49.736Z,94.80
2018-11-26T10:45:19.075Z,95.00
2018-11-26T10:47:47.307Z,95.10
2018-11-26T10:50:17.275Z,95.00
2018-11-26T10:52:46.871Z,95.10
2018-11-26T10:55:20.247Z,95.00
2018-11-26T10:57:48.507Z,94.90
2018-11-26T11:00:22.052Z,95.00
2018-11-26T11:02:50.742Z,95.10
2018-11-26T11:05:18.951Z,95.10
2018-11-26T11:07:47.148Z,95.10
2018-11-26T11:10:24.258Z,95.10
2018-11-26T11:12:52.467Z,94.90
2018-11-26T11:15:20.871Z,95.10
2018-11-26T11:17:49.266Z,94.90
2018-11-26T11:20:19.433Z,95.00
2018-11-26T11:22:47.647Z,95.00
2018-11-26T11:25:16.691Z,95.00
2018-11-26T11:27:44.974Z,95.00
2018-11-26T11:30:18.394Z,95.00
2018-11-26T11:32:46.595Z,95.00
2018-11-26T11:35:15.396Z,95.10
2018-11-26T11:37:44.782Z,95.10
2018-11-26T11:40:16.972Z,94.90
2018-11-26T11:42:45.245Z,95.00
2018-11-26T11:45:13.958Z,95.00
2018-11-26T11:47:42.223Z,95.00
2018-11-26T11:50:13.556Z,95.10
2018-11-26T11:52:41.798Z,95.20
2018-11-26T11:55:12.161Z,95.10
2018-11-26T11:57:40.402Z,95.20
2018-11-26T12:00:50.035Z,95.20
2018-11-26T12:03:19.429Z,95.00
2018-11-26T12:05:47.637Z,95.00
2018-11-26T12:08:15.974Z,95.10
2018-11-26T12:10:44.194Z,94.90
2018-11-26T12:13:13.610Z,95.20
2018-11-26T12:15:43.313Z,95.30
2018-11-26T12:18:12.062Z,95.10
2018-11-26T12:20:40.267Z,95.10
2018-11-26T12:23:08.496Z,95.20
2018-11-26T12:25:36.809Z,95.00
2018-11-26T12:28:05.061Z,95.00
2018-11-26T12:30:34.820Z,95.10
2018-11-26T12:33:03.137Z,95.00
2018-11-26T12:35:31.358Z,95.20
2018-11-26T12:37:59.597Z,95.00
2018-11-26T12:40:27.846Z,95.00
2018-11-26T12:42:58.261Z,95.00
2018-11-26T12:45:27.802Z,95.00
2018-11-26T12:47:56.012Z,95.00
2018-11-26T12:50:24.233Z,94.80
2018-11-26T12:52:52.453Z,95.00
2018-11-26T12:55:21.755Z,95.20
2018-11-26T12:57:51.112Z,95.30
2018-11-26T13:00:23.257Z,95.20
2018-11-26T13:02:56.537Z,95.30
2018-11-26T13:05:24.765Z,95.10
2018-11-26T13:07:52.976Z,95.10
2018-11-26T13:10:22.129Z,95.10
2018-11-26T13:12:50.964Z,95.30
2018-11-26T13:15:20.461Z,95.30
2018-11-26T13:17:48.677Z,95.30
2018-11-26T13:20:22.403Z,95.10
2018-11-26T13:22:51.233Z,95.20
2018-11-26T13:25:21.893Z,95.20
2018-11-26T13:27:53.427Z,95.20
2018-11-26T13:30:24.077Z,95.30
2018-11-26T13:32:53.652Z,95.30
2018-11-26T13:35:21.870Z,95.20
2018-11-26T13:37:50.185Z,95.20
2018-11-26T13:40:18.993Z,95.20
2018-11-26T13:42:47.316Z,95.10
2018-11-26T13:45:18.829Z,95.30
2018-11-26T13:47:47.033Z,95.20
2018-11-26T13:50:18.030Z,95.20
2018-11-26T13:52:46.257Z,95.20
2018-11-26T13:55:14.471Z,95.20
2018-11-26T13:57:42.681Z,95.20
2018-11-26T14:00:13.125Z,95.10
2018-11-26T14:02:41.341Z,95.20
2018-11-26T14:05:11.477Z,95.40
2018-11-26T14:07:39.799Z,95.50
2018-11-26T14:10:11.702Z,95.60
2018-11-26T14:12:40.503Z,95.70
2018-11-26T14:15:10.433Z,95.90
2018-11-26T14:17:38.770Z,95.80
2018-11-26T14:20:10.897Z,95.70
2018-11-26T14:22:39.301Z,95.60
2018-11-26T14:25:15.863Z,95.70
2018-11-26T14:27:44.378Z,95.70
2018-11-26T14:30:30.558Z,95.90
2018-11-26T14:32:58.855Z,95.90
2018-11-26T14:35:27.090Z,96.00
2018-11-26T14:37:58.390Z,96.10
2018-11-26T14:40:30.018Z,96.30
2018-11-26T14:42:58.271Z,96.50
2018-11-26T14:45:26.481Z,96.30
2018-11-26T14:47:54.715Z,96.40
2018-11-26T14:50:22.969Z,96.40
2018-11-26T14:52:51.217Z,96.30
2018-11-26T14:55:21.959Z,96.30
2018-11-26T14:57:50.196Z,96.20
2018-11-26T15:00:19.118Z,96.90
2018-11-26T15:02:47.334Z,96.80
2018-11-26T15:05:15.812Z,96.70
2018-11-26T15:07:44.197Z,96.60
2018-11-26T15:10:14.523Z,96.60
2018-11-26T15:12:42.831Z,96.80
2018-11-26T15:15:13.285Z,97.00
2018-11-26T15:17:42.512Z,96.80
2018-11-26T15:20:15.270Z,97.10
2018-11-26T15:22:43.475Z,96.90
2018-11-26T15:25:14.149Z,96.70
2018-11-26T15:27:42.422Z,96.50
2018-11-26T15:30:15.005Z,96.40
2018-11-26T15:32:43.334Z,97.00
2018-11-26T15:35:12.919Z,96.80
2018-11-26T15:37:41.194Z,96.80
2018-11-26T15:40:10.403Z,96.60
2018-11-26T15:42:38.834Z,96.90
2018-11-26T15:45:27.996Z,96.50
2018-11-26T15:48:00.573Z,96.70
2018-11-26T15:50:28.881Z,96.90
2018-11-26T15:52:57.086Z,96.90
2018-11-26T15:55:25.369Z,97.00
2018-11-26T15:57:53.614Z,97.20
2018-11-26T16:00:24.326Z,96.90
2018-11-26T16:02:52.955Z,97.10
2018-11-26T16:05:27.766Z,97.30
2018-11-26T16:07:59.482Z,97.10
2018-11-26T16:10:27.681Z,97.10
2018-11-26T16:12:57.255Z,97.10
2018-11-26T16:15:28.025Z,97.10
2018-11-26T16:17:58.109Z,96.70
2018-11-26T16:20:26.989Z,97.00
2018-11-26T16:22:55.906Z,97.10
2018-11-26T16:25:24.661Z,97.40
2018-11-26T16:27:52.857Z,97.90
2018-11-26T16:30:21.415Z,97.50
2018-11-26T16:32:53.007Z,97.20
2018-11-26T16:35:23.479Z,97.00
2018-11-26T16:37:51.696Z,97.20
2018-11-26T16:40:19.906Z,97.00
2018-11-26T16:42:48.455Z,97.10
2018-11-26T16:45:17.785Z,97.40
2018-11-26T16:47:47.238Z,97.40
2018-11-26T16:50:16.401Z,97.40
2018-11-26T16:52:44.617Z,97.30
2018-11-26T16:55:13.645Z,97.30
2018-11-26T16:57:42.051Z,97.20
2018-11-26T17:00:19.342Z,97.10
2018-11-26T17:02:48.669Z,96.80
2018-11-26T17:05:22.566Z,96.80
2018-11-26T17:07:50.567Z,97.00
2018-11-26T17:10:18.765Z,96.70
2018-11-26T17:12:47.066Z,97.00
2018-11-26T17:15:16.822Z,97.00
2018-11-26T17:17:45.142Z,96.90
2018-11-26T17:20:14.213Z,96.90
2018-11-26T17:22:42.648Z,97.00
2018-11-26T17:25:11.762Z,96.90
2018-11-26T17:27:40.548Z,96.80
2018-11-26T17:30:15.901Z,96.70
2018-11-26T17:32:45.288Z,96.90
2018-11-26T17:35:14.493Z,97.20
2018-11-26T17:37:43.131Z,96.90
2018-11-26T17:40:13.614Z,97.10
2018-11-26T17:42:41.841Z,97.00
2018-11-26T17:45:11.417Z,97.20
2018-11-26T17:47:40.069Z,97.30
2018-11-26T17:50:16.841Z,96.90
2018-11-26T17:52:45.044Z,97.60
2018-11-26T17:55:13.265Z,97.90
2018-11-26T17:57:41.513Z,97.10
2018-11-26T18:00:12.093Z,97.10
2018-11-26T18:02:40.569Z,97.40
2018-11-26T18:05:16.876Z,97.30
2018-11-26T18:07:45.913Z,97.70
2018-11-26T18:10:15.128Z,97.50
2018-11-26T18:12:43.372Z,97.90
2018-11-26T18:15:12.841Z,97.90
2018-11-26T18:17:41.077Z,97.90
2018-11-26T18:20:13.845Z,97.90
2018-11-26T18:22:42.784Z,97.60
2018-11-26T18:25:11.524Z,97.70
2018-11-26T18:27:42.169Z,97.60
2018-11-26T18:30:14.645Z,98.10
2018-11-26T18:32:42.978Z,97.80
2018-11-26T18:35:11.277Z,98.10
2018-11-26T18:37:39.485Z,97.90
2018-11-26T18:40:12.262Z,97.80
2018-11-26T18:42:40.471Z,98.20
2018-11-26T18:45:12.655Z,98.20
2018-11-26T18:47:40.861Z,98.50
2018-11-26T18:50:12.137Z,97.90
2018-11-26T18:52:40.357Z,98.50
2018-11-26T18:55:09.405Z,98.20
2018-11-26T18:57:37.630Z,98.30
2018-11-26T19:00:12.101Z,98.20
2018-11-26T19:02:40.310Z,98.40
2018-11-26T19:05:09.857Z,98.30
2018-11-26T19:07:38.086Z,98.70
2018-11-26T19:10:10.473Z,98.70
2018-11-26T19:12:38.706Z,98.70
2018-11-26T19:15:11.802Z,98.70
2018-11-26T19:17:40.062Z,98.60
2018-11-26T19:20:10.878Z,98.90
2018-11-26T19:22:39.414Z,98.50
2018-11-26T19:25:09.479Z,98.00
2018-11-26T19:27:37.705Z,98.30
2018-11-26T19:30:09.949Z,98.60
2018-11-26T19:32:38.179Z,98.80
2018-11-26T19:35:08.225Z,98.30
2018-11-26T19:37:36.461Z,98.50
2018-11-26T19:40:11.889Z,99.00
2018-11-26T19:42:40.403Z,98.70
2018-11-26T19:45:19.654Z,98.90
2018-11-26T19:47:47.878Z,99.00
2018-11-26T19:50:17.118Z,99.40
2018-11-26T19:52:46.219Z,99.00
2018-11-26T19:55:16.037Z,98.70
2018-11-26T19:57:44.268Z,98.30
2018-11-26T20:00:18.939Z,98.80
2018-11-26T20:02:49.037Z,98.60
2018-11-26T20:05:21.637Z,98.70
2018-11-26T20:07:49.852Z,99.30
2018-11-26T20:10:18.496Z,99.40
2018-11-26T20:12:46.789Z,99.30
2018-11-26T20:15:16.422Z,98.90
2018-11-26T20:17:44.631Z,98.80
2018-11-26T20:20:12.858Z,98.90
2018-11-26T20:22:41.065Z,99.40
2018-11-26T20:25:11.196Z,99.20
2018-11-26T20:27:39.975Z,99.10
2018-11-26T20:30:11.141Z,99.10
2018-11-26T20:32:40.031Z,99.10
2018-11-26T20:35:09.653Z,99.80
2018-11-26T20:37:37.889Z,99.60
2018-11-26T20:40:10.801Z,99.40
2018-11-26T20:42:39.682Z,99.60
2018-11-26T20:45:11.984Z,99.70
2018-11-26T20:47:40.186Z,99.30
2018-11-26T20:50:14.602Z,99.80
2018-11-26T20:52:42.818Z,99.80
2018-11-26T20:55:12.845Z,99.20
2018-11-26T20:57:41.070Z,99.40
2018-11-26T21:00:12.271Z,99.20
2018-11-26T21:02:40.516Z,99.50
2018-11-26T21:05:08.801Z,99.30
2018-11-26T21:07:37.031Z,99.80
2018-11-26T21:10:07.510Z,99.70
2018-11-26T21:12:35.747Z,99.30
2018-11-26T21:15:05.721Z,99.90
2018-11-26T21:17:33.962Z,99.80
2018-11-26T21:20:02.336Z,99.80
2018-11-26T21:22:30.597Z,99.40
2018-11-26T21:24:58.849Z,99.60
2018-11-26T21:27:27.076Z,99.60
2018-11-26T21:29:55.315Z,99.80
2018-11-26T21:32:23.538Z,99.90
2018-11-26T21:34:51.781Z,99.90
2018-11-26T21:37:20.026Z,99.60
2018-11-26T21:39:48.253Z,99.90
2018-11-26T21:42:16.526Z,99.90
2018-11-26T21:44:44.737Z,99.90
2018-11-26T21:47:12.967Z,99.90
2018-11-26T21:49:41.252Z,99.70
2018-11-26T21:52:09.497Z,99.90
2018-11-26T21:54:37.713Z,99.90
2018-11-26T21:57:06.486Z,99.90
2018-11-26T21:59:34.713Z,99.90
2018-11-26T22:02:02.933Z,99.80
2018-11-26T22:04:31.190Z,99.40
2018-11-26T22:06:59.433Z,99.30
2018-11-26T22:09:27.669Z,99.90
2018-11-26T22:11:55.911Z,99.80
2018-11-26T22:14:24.129Z,99.90
2018-11-26T22:16:52.412Z,99.90
2018-11-26T22:19:20.759Z,99.80
2018-11-26T22:21:48.989Z,99.60
2018-11-26T22:24:17.221Z,99.80
2018-11-26T22:26:45.470Z,99.90
2018-11-26T22:29:13.702Z,99.90
2018-11-26T22:31:42.030Z,99.90
2018-11-26T22:34:10.309Z,99.90
2018-11-26T22:36:38.577Z,99.90
2018-11-26T22:39:09.993Z,99.90
2018-11-26T22:41:38.389Z,99.90
2018-11-26T22:44:06.609Z,99.90
2018-11-26T22:46:35.147Z,99.90
2018-11-26T22:49:03.360Z,99.90
2018-11-26T22:51:31.693Z,99.90
2018-11-26T22:53:59.923Z,99.90
2018-11-26T22:56:28.145Z,99.80
2018-11-26T22:58:56.353Z,99.90
2018-11-26T23:01:24.605Z,99.90
2018-11-26T23:03:52.822Z,99.90
2018-11-26T23:06:21.039Z,99.90
2018-11-26T23:08:49.272Z,99.60
2018-11-26T23:11:17.491Z,99.90
2018-11-26T23:13:45.700Z,99.70
2018-11-26T23:16:14.025Z,99.70
2018-11-26T23:18:42.412Z,99.80
2018-11-26T23:21:10.652Z,99.70
2018-11-26T23:23:38.878Z,99.80
2018-11-26T23:26:07.103Z,99.80
2018-11-26T23:28:35.323Z,99.60
2018-11-26T23:31:03.593Z,99.80
2018-11-26T23:33:31.805Z,99.90
2018-11-26T23:36:00.824Z,99.90
2018-11-26T23:38:29.058Z,99.70
2018-11-26T23:40:57.273Z,99.50
2018-11-26T23:43:25.486Z,99.90
2018-11-26T23:45:53.753Z,99.90
2018-11-26T23:48:21.956Z,99.80
2018-11-26T23:50:50.189Z,99.90
2018-11-26T23:53:18.433Z,99.90
2018-11-26T23:55:46.639Z,99.80
2018-11-26T23:58:14.850Z,99.70
